sensor_id;sensor_type;location;lat;lon;timestamp;pressure;altitude;pressure_sealevel;temperature;humidity
76052;BME280;64751;48.708;9.710;2023-09-18T14:32:40;97142.91;;;20.04;83.06
76052;BME280;64751;48.708;9.710;2023-09-18T14:35:08;97145.28;;;20.09;83.64
76052;BME280;64751;48.708;9.710;2023-09-18T14:37:37;97145.41;;;20.12;83.85
76052;BME280;64751;48.708;9.710;2023-09-18T14:40:05;97124.81;;;20.16;84.36
76052;BME280;64751;48.708;9.710;2023-09-18T14:42:38;97130.22;;;20.20;83.11
76052;BME280;64751;48.708;9.710;2023-09-18T14:45:06;97126.91;;;20.23;83.25
76052;BME280;64751;48.708;9.710;2023-09-18T14:47:34;97134.16;;;20.22;83.38
76052;BME280;64751;48.708;9.710;2023-09-18T14:50:04;97125.00;;;20.23;82.93
76052;BME280;64751;48.708;9.710;2023-09-18T14:52:31;97117.38;;;20.26;83.23
76052;BME280;64751;48.708;9.710;2023-09-18T14:54:59;97121.97;;;20.25;79.61
76052;BME280;64751;48.708;9.710;2023-09-18T14:57:30;97121.59;;;20.27;80.19
76052;BME280;64751;48.708;9.710;2023-09-18T14:59:57;97118.59;;;20.28;81.47
76052;BME280;64751;48.708;9.710;2023-09-18T15:02:29;97113.50;;;20.23;79.50
76052;BME280;64751;48.708;9.710;2023-09-18T15:05:02;97118.06;;;20.22;80.58
76052;BME280;64751;48.708;9.710;2023-09-18T15:07:33;97120.75;;;20.22;81.59
76052;BME280;64751;48.708;9.710;2023-09-18T15:10:01;97116.41;;;20.18;80.74
76052;BME280;64751;48.708;9.710;2023-09-18T15:12:31;97100.72;;;20.20;82.33
76052;BME280;64751;48.708;9.710;2023-09-18T15:14:58;97096.50;;;20.19;83.29
76052;BME280;64751;48.708;9.710;2023-09-18T15:17:26;97083.72;;;20.12;79.05
76052;BME280;64751;48.708;9.710;2023-09-18T15:19:54;97087.19;;;20.13;79.31
76052;BME280;64751;48.708;9.710;2023-09-18T15:22:23;97085.63;;;20.12;79.21
76052;BME280;64751;48.708;9.710;2023-09-18T15:24:51;97077.94;;;20.10;79.61
76052;BME280;64751;48.708;9.710;2023-09-18T15:27:19;97081.81;;;20.13;80.95
76052;BME280;64751;48.708;9.710;2023-09-18T15:29:47;97071.84;;;20.13;80.79
76052;BME280;64751;48.708;9.710;2023-09-18T15:32:14;97058.81;;;20.12;79.58
76052;BME280;64751;48.708;9.710;2023-09-18T15:34:42;97061.41;;;20.08;78.17
76052;BME280;64751;48.708;9.710;2023-09-18T15:37:10;97060.22;;;20.06;77.89
76052;BME280;64751;48.708;9.710;2023-09-18T15:39:41;97065.56;;;20.06;80.14
76052;BME280;64751;48.708;9.710;2023-09-18T15:42:09;97059.84;;;20.07;79.89
76052;BME280;64751;48.708;9.710;2023-09-18T15:44:36;97073.69;;;20.09;81.27
76052;BME280;64751;48.708;9.710;2023-09-18T15:47:04;97067.53;;;20.09;81.52
76052;BME280;64751;48.708;9.710;2023-09-18T15:49:32;97053.63;;;20.03;78.09
76052;BME280;64751;48.708;9.710;2023-09-18T15:51:59;97064.44;;;20.07;78.40
76052;BME280;64751;48.708;9.710;2023-09-18T15:54:29;97049.50;;;20.06;78.90
76052;BME280;64751;48.708;9.710;2023-09-18T15:56:58;97067.13;;;20.07;77.97
76052;BME280;64751;48.708;9.710;2023-09-18T15:59:25;97062.59;;;20.11;79.59
76052;BME280;64751;48.708;9.710;2023-09-18T16:01:53;97065.28;;;20.11;79.69
76052;BME280;64751;48.708;9.710;2023-09-18T16:04:20;97057.97;;;20.08;79.80
76052;BME280;64751;48.708;9.710;2023-09-18T16:06:48;97053.63;;;20.03;79.22
76052;BME280;64751;48.708;9.710;2023-09-18T16:09:16;97037.03;;;19.98;78.97
76052;BME280;64751;48.708;9.710;2023-09-18T16:11:44;97032.72;;;19.93;80.29
76052;BME280;64751;48.708;9.710;2023-09-18T16:14:13;97032.22;;;19.88;79.74
76052;BME280;64751;48.708;9.710;2023-09-18T16:16:41;97032.13;;;19.84;80.70
76052;BME280;64751;48.708;9.710;2023-09-18T16:19:10;97034.72;;;19.81;79.25
76052;BME280;64751;48.708;9.710;2023-09-18T16:21:37;97036.19;;;19.78;80.55
76052;BME280;64751;48.708;9.710;2023-09-18T16:24:06;97040.72;;;19.74;81.57
76052;BME280;64751;48.708;9.710;2023-09-18T16:26:36;97039.44;;;19.68;81.83
76052;BME280;64751;48.708;9.710;2023-09-18T16:29:03;97034.75;;;19.65;81.48
76052;BME280;64751;48.708;9.710;2023-09-18T16:31:33;97040.47;;;19.64;80.95
76052;BME280;64751;48.708;9.710;2023-09-18T16:34:01;97035.38;;;19.59;81.59
76052;BME280;64751;48.708;9.710;2023-09-18T16:36:29;97031.91;;;19.58;82.59
76052;BME280;64751;48.708;9.710;2023-09-18T16:38:56;97027.56;;;19.53;81.54
76052;BME280;64751;48.708;9.710;2023-09-18T16:41:24;97024.47;;;19.51;80.83
76052;BME280;64751;48.708;9.710;2023-09-18T16:43:52;97027.84;;;19.48;82.65
76052;BME280;64751;48.708;9.710;2023-09-18T16:46:20;97026.19;;;19.44;83.54
76052;BME280;64751;48.708;9.710;2023-09-18T16:48:49;97023.78;;;19.39;83.75
76052;BME280;64751;48.708;9.710;2023-09-18T16:51:16;97032.50;;;19.36;84.16
76052;BME280;64751;48.708;9.710;2023-09-18T16:53:44;97038.19;;;19.34;83.56
76052;BME280;64751;48.708;9.710;2023-09-18T16:56:12;97043.09;;;19.32;84.22
76052;BME280;64751;48.708;9.710;2023-09-18T16:58:40;97040.75;;;19.31;84.34
76052;BME280;64751;48.708;9.710;2023-09-18T17:01:10;97041.78;;;19.26;83.71
76052;BME280;64751;48.708;9.710;2023-09-18T17:03:37;97047.06;;;19.23;84.70
76052;BME280;64751;48.708;9.710;2023-09-18T17:06:07;97044.72;;;19.21;85.19
76052;BME280;64751;48.708;9.710;2023-09-18T17:08:34;97050.41;;;19.20;85.19
76052;BME280;64751;48.708;9.710;2023-09-18T17:11:02;97058.38;;;19.16;85.10
76052;BME280;64751;48.708;9.710;2023-09-18T17:13:30;97059.84;;;19.14;84.71
76052;BME280;64751;48.708;9.710;2023-09-18T17:15:57;97065.88;;;19.11;84.90
76052;BME280;64751;48.708;9.710;2023-09-18T17:18:25;97063.44;;;19.06;84.63
76052;BME280;64751;48.708;9.710;2023-09-18T17:20:53;97064.13;;;19.03;85.05
76052;BME280;64751;48.708;9.710;2023-09-18T17:23:22;97071.97;;;18.96;84.78
76052;BME280;64751;48.708;9.710;2023-09-18T17:25:50;97073.78;;;18.92;85.35
76052;BME280;64751;48.708;9.710;2023-09-18T17:28:18;97070.91;;;18.85;85.04
76052;BME280;64751;48.708;9.710;2023-09-18T17:30:45;97065.78;;;18.79;85.57
76052;BME280;64751;48.708;9.710;2023-09-18T17:33:16;97065.56;;;18.72;85.14
76052;BME280;64751;48.708;9.710;2023-09-18T17:35:44;97065.06;;;18.67;86.20
76052;BME280;64751;48.708;9.710;2023-09-18T17:38:13;97073.31;;;18.62;86.19
76052;BME280;64751;48.708;9.710;2023-09-18T17:40:42;97077.00;;;18.57;86.26
76052;BME280;64751;48.708;9.710;2023-09-18T17:43:10;97081.47;;;18.53;86.55
76052;BME280;64751;48.708;9.710;2023-09-18T17:45:38;97088.63;;;18.49;86.96
76052;BME280;64751;48.708;9.710;2023-09-18T17:48:07;97095.44;;;18.47;86.28
76052;BME280;64751;48.708;9.710;2023-09-18T17:50:35;97095.63;;;18.42;87.19
76052;BME280;64751;48.708;9.710;2023-09-18T17:53:03;97096.63;;;18.37;87.04
76052;BME280;64751;48.708;9.710;2023-09-18T17:55:30;97101.84;;;18.34;86.46
76052;BME280;64751;48.708;9.710;2023-09-18T17:58:00;97098.22;;;18.26;87.00
76052;BME280;64751;48.708;9.710;2023-09-18T18:00:28;97100.00;;;18.22;87.56
76052;BME280;64751;48.708;9.710;2023-09-18T18:02:56;97104.44;;;18.18;88.23
76052;BME280;64751;48.708;9.710;2023-09-18T18:05:23;97110.03;;;18.13;88.43
76052;BME280;64751;48.708;9.710;2023-09-18T18:07:51;97108.38;;;18.08;88.19
76052;BME280;64751;48.708;9.710;2023-09-18T18:10:19;97107.91;;;18.06;88.32
76052;BME280;64751;48.708;9.710;2023-09-18T18:12:47;97114.28;;;18.02;88.87
76052;BME280;64751;48.708;9.710;2023-09-18T18:15:16;97110.38;;;17.99;88.61
76052;BME280;64751;48.708;9.710;2023-09-18T18:17:44;97109.34;;;17.92;88.88
76052;BME280;64751;48.708;9.710;2023-09-18T18:20:14;97105.44;;;17.89;88.60
76052;BME280;64751;48.708;9.710;2023-09-18T18:22:42;97117.56;;;17.87;89.05
76052;BME280;64751;48.708;9.710;2023-09-18T18:25:10;97120.81;;;17.80;88.62
76052;BME280;64751;48.708;9.710;2023-09-18T18:27:39;97118.03;;;17.77;88.64
76052;BME280;64751;48.708;9.710;2023-09-18T18:30:07;97109.78;;;17.70;89.44
76052;BME280;64751;48.708;9.710;2023-09-18T18:32:37;97119.25;;;17.67;89.26
76052;BME280;64751;48.708;9.710;2023-09-18T18:35:07;97105.44;;;17.65;89.83
76052;BME280;64751;48.708;9.710;2023-09-18T18:37:36;97104.41;;;17.58;88.93
76052;BME280;64751;48.708;9.710;2023-09-18T18:40:05;97109.31;;;17.56;88.79
76052;BME280;64751;48.708;9.710;2023-09-18T18:42:37;97100.59;;;17.47;89.03
76052;BME280;64751;48.708;9.710;2023-09-18T18:45:05;97113.28;;;17.50;89.09
76052;BME280;64751;48.708;9.710;2023-09-18T18:47:33;97110.16;;;17.48;89.45
76052;BME280;64751;48.708;9.710;2023-09-18T18:50:02;97096.22;;;17.42;88.73
76052;BME280;64751;48.708;9.710;2023-09-18T18:52:31;97105.13;;;17.34;88.14
76052;BME280;64751;48.708;9.710;2023-09-18T18:54:59;97108.44;;;17.31;88.98
76052;BME280;64751;48.708;9.710;2023-09-18T18:57:27;97102.56;;;17.25;89.41
76052;BME280;64751;48.708;9.710;2023-09-18T18:59:55;97105.53;;;17.24;89.83
76052;BME280;64751;48.708;9.710;2023-09-18T19:02:22;97116.19;;;17.24;89.45
76052;BME280;64751;48.708;9.710;2023-09-18T19:04:50;97122.66;;;17.23;89.88
76052;BME280;64751;48.708;9.710;2023-09-18T19:07:19;97116.88;;;17.21;89.91
76052;BME280;64751;48.708;9.710;2023-09-18T19:09:48;97124.88;;;17.21;89.39
76052;BME280;64751;48.708;9.710;2023-09-18T19:12:15;97126.97;;;17.15;89.48
76052;BME280;64751;48.708;9.710;2023-09-18T19:14:43;97130.31;;;17.12;89.55
76052;BME280;64751;48.708;9.710;2023-09-18T19:17:11;97137.97;;;17.14;90.28
76052;BME280;64751;48.708;9.710;2023-09-18T19:19:38;97137.34;;;17.17;90.37
76052;BME280;64751;48.708;9.710;2023-09-18T19:22:06;97139.75;;;17.10;90.29
76052;BME280;64751;48.708;9.710;2023-09-18T19:24:36;97145.66;;;17.15;90.11
76052;BME280;64751;48.708;9.710;2023-09-18T19:27:04;97144.88;;;17.15;90.43
76052;BME280;64751;48.708;9.710;2023-09-18T19:29:31;97153.66;;;17.15;90.57
76052;BME280;64751;48.708;9.710;2023-09-18T19:31:59;97164.34;;;17.15;90.99
76052;BME280;64751;48.708;9.710;2023-09-18T19:34:26;97164.03;;;17.17;90.56
76052;BME280;64751;48.708;9.710;2023-09-18T19:36:54;97164.78;;;17.17;89.95
76052;BME280;64751;48.708;9.710;2023-09-18T19:39:21;97161.00;;;17.18;90.01
76052;BME280;64751;48.708;9.710;2023-09-18T19:41:51;97163.25;;;17.16;90.56
76052;BME280;64751;48.708;9.710;2023-09-18T19:44:23;97165.75;;;17.13;90.38
76052;BME280;64751;48.708;9.710;2023-09-18T19:46:51;97166.09;;;17.11;90.27
76052;BME280;64751;48.708;9.710;2023-09-18T19:49:19;97167.22;;;17.10;90.31
76052;BME280;64751;48.708;9.710;2023-09-18T19:51:46;97158.44;;;17.10;90.69
76052;BME280;64751;48.708;9.710;2023-09-18T19:54:14;97157.00;;;17.12;91.27
76052;BME280;64751;48.708;9.710;2023-09-18T19:56:42;97157.63;;;17.09;90.57
76052;BME280;64751;48.708;9.710;2023-09-18T19:59:11;97165.66;;;17.09;90.46
76052;BME280;64751;48.708;9.710;2023-09-18T20:01:39;97165.31;;;17.11;90.86
76052;BME280;64751;48.708;9.710;2023-09-18T20:04:07;97163.75;;;17.10;90.46
76052;BME280;64751;48.708;9.710;2023-09-18T20:06:34;97163.63;;;17.06;90.99
76052;BME280;64751;48.708;9.710;2023-09-18T20:09:02;97153.09;;;17.10;91.07
76052;BME280;64751;48.708;9.710;2023-09-18T20:11:31;97154.00;;;17.14;91.49
76052;BME280;64751;48.708;9.710;2023-09-18T20:14:01;97154.00;;;17.14;91.20
76052;BME280;64751;48.708;9.710;2023-09-18T20:16:32;97157.19;;;17.07;91.18
76052;BME280;64751;48.708;9.710;2023-09-18T20:19:01;97164.56;;;17.10;90.86
76052;BME280;64751;48.708;9.710;2023-09-18T20:21:29;97170.97;;;17.09;90.85
76052;BME280;64751;48.708;9.710;2023-09-18T20:23:57;97170.53;;;17.07;91.03
76052;BME280;64751;48.708;9.710;2023-09-18T20:26:24;97178.09;;;17.05;90.84
76052;BME280;64751;48.708;9.710;2023-09-18T20:28:52;97174.63;;;17.05;91.00
76052;BME280;64751;48.708;9.710;2023-09-18T20:31:20;97186.41;;;17.04;91.10
76052;BME280;64751;48.708;9.710;2023-09-18T20:33:51;97177.94;;;17.02;91.31
76052;BME280;64751;48.708;9.710;2023-09-18T20:36:19;97181.72;;;17.01;92.13
76052;BME280;64751;48.708;9.710;2023-09-18T20:38:46;97165.84;;;17.04;91.89
76052;BME280;64751;48.708;9.710;2023-09-18T20:41:14;97173.06;;;17.04;91.70
76052;BME280;64751;48.708;9.710;2023-09-18T20:43:42;97171.19;;;17.04;91.77
76052;BME280;64751;48.708;9.710;2023-09-18T20:46:11;97170.72;;;17.02;91.72
76052;BME280;64751;48.708;9.710;2023-09-18T20:48:38;97177.94;;;17.02;92.09
76052;BME280;64751;48.708;9.710;2023-09-18T20:51:07;97169.19;;;17.01;92.10
76052;BME280;64751;48.708;9.710;2023-09-18T20:53:35;97169.63;;;17.03;91.99
76052;BME280;64751;48.708;9.710;2023-09-18T20:56:03;97169.63;;;17.03;92.38
76052;BME280;64751;48.708;9.710;2023-09-18T20:58:30;97173.84;;;17.04;92.21
76052;BME280;64751;48.708;9.710;2023-09-18T21:00:58;97173.06;;;17.04;92.72
76052;BME280;64751;48.708;9.710;2023-09-18T21:03:26;97169.63;;;17.03;92.64
76052;BME280;64751;48.708;9.710;2023-09-18T21:05:54;97167.41;;;17.05;92.73
76052;BME280;64751;48.708;9.710;2023-09-18T21:08:23;97156.75;;;17.05;92.59
76052;BME280;64751;48.708;9.710;2023-09-18T21:10:51;97150.63;;;17.05;92.86
76052;BME280;64751;48.708;9.710;2023-09-18T21:13:19;97152.50;;;17.04;92.82
76052;BME280;64751;48.708;9.710;2023-09-18T21:15:46;97140.59;;;17.02;92.71
76052;BME280;64751;48.708;9.710;2023-09-18T21:18:14;97137.81;;;16.98;93.10
76052;BME280;64751;48.708;9.710;2023-09-18T21:20:41;97138.59;;;16.99;93.03
76052;BME280;64751;48.708;9.710;2023-09-18T21:23:09;97143.00;;;16.95;93.33
76052;BME280;64751;48.708;9.710;2023-09-18T21:25:38;97135.00;;;16.95;93.57
76052;BME280;64751;48.708;9.710;2023-09-18T21:28:05;97131.22;;;16.96;93.30
76052;BME280;64751;48.708;9.710;2023-09-18T21:30:33;97137.34;;;16.96;93.26
76052;BME280;64751;48.708;9.710;2023-09-18T21:33:00;97134.53;;;16.93;93.00
76052;BME280;64751;48.708;9.710;2023-09-18T21:35:30;97150.88;;;16.91;92.62
76052;BME280;64751;48.708;9.710;2023-09-18T21:37:58;97163.31;;;16.87;92.48
76052;BME280;64751;48.708;9.710;2023-09-18T21:40:29;97168.19;;;16.85;92.73
76052;BME280;64751;48.708;9.710;2023-09-18T21:42:58;97175.28;;;16.81;92.49
76052;BME280;64751;48.708;9.710;2023-09-18T21:45:25;97177.19;;;16.81;92.90
76052;BME280;64751;48.708;9.710;2023-09-18T21:47:53;97177.47;;;16.79;92.77
76052;BME280;64751;48.708;9.710;2023-09-18T21:50:22;97183.78;;;16.75;93.04
76052;BME280;64751;48.708;9.710;2023-09-18T21:52:50;97180.66;;;16.73;92.61
76052;BME280;64751;48.708;9.710;2023-09-18T21:55:19;97181.00;;;16.71;92.47
76052;BME280;64751;48.708;9.710;2023-09-18T21:57:49;97173.34;;;16.70;92.81
